Star Mariella — V7KK3 — position and weather

sailwx.info

Track history (hours):
 
Tides and Currents Weather Stations Pressure Air Temp Water Temp Dewpoint Dewpoint Depression Visibility Wind Speed Wind Dir Waves Ship Positions

Star Mariella

Last reported at 2016-Jul-24 15:33 UTC. Time now 2016-Jul-24 16:39 UTC.
Position N 31°58' E 120°26'.

Length 229 m; draft 10.8 m.

Type: Ship. MMSI: 538002632.

Date/timePositionNaut miles runAvg speedWind from/ knotsBaromVisibWave heightAir tempDewpointWater temp
2016-Jul-24 15:33N 31°58' E 120°26'0 0.0
2016-Jul-24 14:33N 31°58' E 120°26'0 0.0
2016-Jul-24 13:21N 31°58' E 120°26'0 0.0
2016-Jul-24 12:33N 31°58' E 120°26'0 0.0
2016-Jul-24 11:33N 31°58' E 120°26'0 0.0
2016-Jul-24 10:33N 31°58' E 120°26'0 0.0
2016-Jul-24 09:33N 31°58' E 120°26'0 0.0
2016-Jul-24 08:30N 31°58' E 120°26'0 0.0
2016-Jul-24 06:21N 31°58' E 120°26'0 0.0
2016-Jul-24 04:21N 31°58' E 120°26'0 0.0
2016-Jul-24 03:33N 31°58' E 120°26'0 0.0
2016-Jul-24 02:33N 31°58' E 120°26'0 0.0
2016-Jul-24 01:33N 31°58' E 120°26'0 0.0
2016-Jul-24 00:21N 31°58' E 120°26'0 0.0
2016-Jul-23 23:33N 31°58' E 120°26'0 0.0
2016-Jul-23 22:33N 31°58' E 120°26'0 0.0
2016-Jul-23 21:27N 31°58' E 120°26'0 0.0
2016-Jul-23 20:33N 31°58' E 120°26'0 0.0
2016-Jul-23 19:33N 31°58' E 120°26'0 0.0
2016-Jul-23 18:27N 31°58' E 120°26'0 0.0
2016-Jul-23 17:27N 31°58' E 120°26'0 0.0
2016-Jul-23 16:21N 31°58' E 120°26'0 0.0
2016-Jul-23 15:33N 31°58' E 120°26'0 0.0
2016-Jul-23 14:15N 31°58' E 120°26'0 0.0
2016-Jul-23 13:33N 31°58' E 120°26'0 0.0
2016-Jul-23 12:15N 31°58' E 120°26'0 0.0
2016-Jul-23 10:24N 31°58' E 120°26'0 0.0
2016-Jul-23 09:33N 31°58' E 120°26'0 0.0
2016-Jul-23 08:33N 31°58' E 120°26'0 0.0
2016-Jul-23 07:09N 31°58' E 120°26'2 3.0
2016-Jul-23 06:33N 31°59' E 120°27'9 4.5
2016-Jul-23 04:31N 31°60' E 120°38'6 5.9
2016-Jul-23 03:29N 32°01' E 120°45'6 6.1
2016-Jul-23 02:30N 31°58' E 120°51'9 7.6
2016-Jul-23 01:23N 31°50' E 120°54'6 6.7
2016-Jul-23 00:33N 31°47' E 120°60'8 7.0
2016-Jul-22 23:24N 31°43' E 121°08'6 7.7
2016-Jul-22 22:33N 31°39' E 121°14'4 4.1
2016-Jul-22 21:29N 31°36' E 121°18'0 0.1
2016-Jul-22 20:29N 31°36' E 121°18'0 0.3
2016-Jul-22 19:32N 31°36' E 121°18'0 0.0
2016-Jul-22 18:32N 31°36' E 121°18'0 0.1
2016-Jul-22 17:32N 31°36' E 121°18'0 0.2
2016-Jul-22 16:29N 31°36' E 121°18'0 0.1
2016-Jul-22 15:32N 31°36' E 121°18'0 0.0
2016-Jul-22 14:32N 31°36' E 121°18'0 0.0
2016-Jul-22 13:29N 31°36' E 121°18'0 0.0
2016-Jul-22 12:23N 31°36' E 121°18'0 0.0
2016-Jul-22 11:29N 31°36' E 121°18'0 0.1
2016-Jul-22 10:29N 31°36' E 121°18'5 5.1
2016-Jul-22 09:33N 31°32' E 121°21'9 9.3
2016-Jul-22 08:33N 31°26' E 121°30'9 8.9
2016-Jul-22 07:33N 31°22' E 121°39'1110.6
2016-Jul-22 06:33N 31°17' E 121°50'62 5.2
2016-Jul-21 18:28N 30°50' E 122°56'3311.2
2016-Jul-21 15:33N 30°19' E 123°06'1212.1
2016-Jul-21 14:33N 30°08' E 123°01'1311.2
2016-Jul-21 13:25N 29°58' E 122°51'1011.1
2016-Jul-21 12:32N 29°50' E 122°44'1210.9
2016-Jul-21 11:29N 29°41' E 122°36'9 9.3
2016-Jul-21 10:33N 29°42' E 122°26'1111.2
2016-Jul-21 09:33N 29°48' E 122°15'1111.4
2016-Jul-21 08:33N 29°55' E 122°05'9 8.9
2016-Jul-21 07:33N 30°02' E 121°59'0 0.2
2016-Jul-21 05:33N 30°02' E 121°59'0 0.0
2016-Jul-21 04:32N 30°02' E 121°59'0 0.0
2016-Jul-21 03:29N 30°02' E 121°59'0 0.0
2016-Jul-21 02:20N 30°02' E 121°59'0 0.0
2016-Jul-21 00:26N 30°02' E 121°59'0 0.0
2016-Jul-20 23:26N 30°02' E 121°59'0 0.0
2016-Jul-20 22:32N 30°02' E 121°59'0 0.0
2016-Jul-20 21:32N 30°02' E 121°59'0 0.0
2016-Jul-20 20:26N 30°02' E 121°59'0 0.0
2016-Jul-20 19:08N 30°02' E 121°59'0 0.0
2016-Jul-20 18:32N 30°02' E 121°59'0 0.0
2016-Jul-20 17:26N 30°02' E 121°59'0 0.0
2016-Jul-20 16:08N 30°02' E 121°59'0 0.0
2016-Jul-20 15:32N 30°02' E 121°59'0 0.0
2016-Jul-20 14:26N 30°02' E 121°59'0 0.0
2016-Jul-20 13:26N 30°02' E 121°59'0 0.0
2016-Jul-20 11:17N 30°02' E 121°59'0 0.0
2016-Jul-20 10:26N 30°02' E 121°59'0 0.0
2016-Jul-20 08:29N 30°02' E 121°59'0 0.0
2016-Jul-20 06:32N 30°02' E 121°59'0 0.0
2016-Jul-20 04:32N 30°02' E 121°59'0 0.0
2016-Jul-20 03:32N 30°02' E 121°59'0 0.1
2016-Jul-20 02:34N 30°02' E 121°59'4 3.6
2016-Jul-20 01:32N 29°59' E 121°59'1111.0
2016-Jul-20 00:33N 29°55' E 122°10'1111.0
2016-Jul-19 23:33N 29°46' E 122°18'4 4.5
2016-Jul-19 22:33N 29°44' E 122°23'6 5.8
2016-Jul-19 21:32N 29°43' E 122°30'7 6.8
2016-Jul-19 20:33N 29°38' E 122°34'24 8.0
2016-Jul-19 17:33N 29°14' E 122°36'41910.6
2016-Jul-18 02:13N 22°41' E 119°54'711.0
2016-Jul-18 01:33N 22°34' E 119°54'1211.6
2016-Jul-18 00:30N 22°22' E 119°54'  
Track history (hours):
 
Tides and Currents Weather Stations Pressure Air Temp Water Temp Dewpoint Dewpoint Depression Visibility Wind Speed Wind Dir Waves Ship Positions

Star Mariella

Last reported at 2016-Jul-24 15:33 UTC. Time now 2016-Jul-24 16:39 UTC.
Position N 31°58' E 120°26'.

Length 229 m; draft 10.8 m.

Type: Ship. MMSI: 538002632.

Date/timePositionNaut miles runAvg speedWind from/ knotsBaromVisibWave heightAir tempDewpointWater temp
2016-Jul-24 15:33N 31°58' E 120°26'0 0.0
2016-Jul-24 14:33N 31°58' E 120°26'0 0.0
2016-Jul-24 13:21N 31°58' E 120°26'0 0.0
2016-Jul-24 12:33N 31°58' E 120°26'0 0.0
2016-Jul-24 11:33N 31°58' E 120°26'0 0.0
2016-Jul-24 10:33N 31°58' E 120°26'0 0.0
2016-Jul-24 09:33N 31°58' E 120°26'0 0.0
2016-Jul-24 08:30N 31°58' E 120°26'0 0.0
2016-Jul-24 06:21N 31°58' E 120°26'0 0.0
2016-Jul-24 04:21N 31°58' E 120°26'0 0.0
2016-Jul-24 03:33N 31°58' E 120°26'0 0.0
2016-Jul-24 02:33N 31°58' E 120°26'0 0.0
2016-Jul-24 01:33N 31°58' E 120°26'0 0.0
2016-Jul-24 00:21N 31°58' E 120°26'0 0.0
2016-Jul-23 23:33N 31°58' E 120°26'0 0.0
2016-Jul-23 22:33N 31°58' E 120°26'0 0.0
2016-Jul-23 21:27N 31°58' E 120°26'0 0.0
2016-Jul-23 20:33N 31°58' E 120°26'0 0.0
2016-Jul-23 19:33N 31°58' E 120°26'0 0.0
2016-Jul-23 18:27N 31°58' E 120°26'0 0.0
2016-Jul-23 17:27N 31°58' E 120°26'0 0.0
2016-Jul-23 16:21N 31°58' E 120°26'0 0.0
2016-Jul-23 15:33N 31°58' E 120°26'0 0.0
2016-Jul-23 14:15N 31°58' E 120°26'0 0.0
2016-Jul-23 13:33N 31°58' E 120°26'0 0.0
2016-Jul-23 12:15N 31°58' E 120°26'0 0.0
2016-Jul-23 10:24N 31°58' E 120°26'0 0.0
2016-Jul-23 09:33N 31°58' E 120°26'0 0.0
2016-Jul-23 08:33N 31°58' E 120°26'0 0.0
2016-Jul-23 07:09N 31°58' E 120°26'2 3.0
2016-Jul-23 06:33N 31°59' E 120°27'9 4.5
2016-Jul-23 04:31N 31°60' E 120°38'6 5.9
2016-Jul-23 03:29N 32°01' E 120°45'6 6.1
2016-Jul-23 02:30N 31°58' E 120°51'9 7.6
2016-Jul-23 01:23N 31°50' E 120°54'6 6.7
2016-Jul-23 00:33N 31°47' E 120°60'8 7.0
2016-Jul-22 23:24N 31°43' E 121°08'6 7.7
2016-Jul-22 22:33N 31°39' E 121°14'4 4.1
2016-Jul-22 21:29N 31°36' E 121°18'0 0.1
2016-Jul-22 20:29N 31°36' E 121°18'0 0.3
2016-Jul-22 19:32N 31°36' E 121°18'0 0.0
2016-Jul-22 18:32N 31°36' E 121°18'0 0.1
2016-Jul-22 17:32N 31°36' E 121°18'0 0.2
2016-Jul-22 16:29N 31°36' E 121°18'0 0.1
2016-Jul-22 15:32N 31°36' E 121°18'0 0.0
2016-Jul-22 14:32N 31°36' E 121°18'0 0.0
2016-Jul-22 13:29N 31°36' E 121°18'0 0.0
2016-Jul-22 12:23N 31°36' E 121°18'0 0.0
2016-Jul-22 11:29N 31°36' E 121°18'0 0.1
2016-Jul-22 10:29N 31°36' E 121°18'5 5.1
2016-Jul-22 09:33N 31°32' E 121°21'9 9.3
2016-Jul-22 08:33N 31°26' E 121°30'9 8.9
2016-Jul-22 07:33N 31°22' E 121°39'1110.6
2016-Jul-22 06:33N 31°17' E 121°50'62 5.2
2016-Jul-21 18:28N 30°50' E 122°56'3311.2
2016-Jul-21 15:33N 30°19' E 123°06'1212.1
2016-Jul-21 14:33N 30°08' E 123°01'1311.2
2016-Jul-21 13:25N 29°58' E 122°51'1011.1
2016-Jul-21 12:32N 29°50' E 122°44'1210.9
2016-Jul-21 11:29N 29°41' E 122°36'9 9.3
2016-Jul-21 10:33N 29°42' E 122°26'1111.2
2016-Jul-21 09:33N 29°48' E 122°15'1111.4
2016-Jul-21 08:33N 29°55' E 122°05'9 8.9
2016-Jul-21 07:33N 30°02' E 121°59'0 0.2
2016-Jul-21 05:33N 30°02' E 121°59'0 0.0
2016-Jul-21 04:32N 30°02' E 121°59'0 0.0
2016-Jul-21 03:29N 30°02' E 121°59'0 0.0
2016-Jul-21 02:20N 30°02' E 121°59'0 0.0
2016-Jul-21 00:26N 30°02' E 121°59'0 0.0
2016-Jul-20 23:26N 30°02' E 121°59'0 0.0
2016-Jul-20 22:32N 30°02' E 121°59'0 0.0
2016-Jul-20 21:32N 30°02' E 121°59'0 0.0
2016-Jul-20 20:26N 30°02' E 121°59'0 0.0
2016-Jul-20 19:08N 30°02' E 121°59'0 0.0
2016-Jul-20 18:32N 30°02' E 121°59'0 0.0
2016-Jul-20 17:26N 30°02' E 121°59'0 0.0
2016-Jul-20 16:08N 30°02' E 121°59'0 0.0
2016-Jul-20 15:32N 30°02' E 121°59'0 0.0
2016-Jul-20 14:26N 30°02' E 121°59'0 0.0
2016-Jul-20 13:26N 30°02' E 121°59'0 0.0
2016-Jul-20 11:17N 30°02' E 121°59'0 0.0
2016-Jul-20 10:26N 30°02' E 121°59'0 0.0
2016-Jul-20 08:29N 30°02' E 121°59'0 0.0
2016-Jul-20 06:32N 30°02' E 121°59'0 0.0
2016-Jul-20 04:32N 30°02' E 121°59'0 0.0
2016-Jul-20 03:32N 30°02' E 121°59'0 0.1
2016-Jul-20 02:34N 30°02' E 121°59'4 3.6
2016-Jul-20 01:32N 29°59' E 121°59'1111.0
2016-Jul-20 00:33N 29°55' E 122°10'1111.0
2016-Jul-19 23:33N 29°46' E 122°18'4 4.5
2016-Jul-19 22:33N 29°44' E 122°23'6 5.8
2016-Jul-19 21:32N 29°43' E 122°30'7 6.8
2016-Jul-19 20:33N 29°38' E 122°34'24 8.0
2016-Jul-19 17:33N 29°14' E 122°36'41910.6
2016-Jul-18 02:13N 22°41' E 119°54'711.0
2016-Jul-18 01:33N 22°34' E 119°54'1211.6
2016-Jul-18 00:30N 22°22' E 119°54'  

Dump ship's entire track history